createdAt,value
2022-11-06T00:00:31.067Z,6.03
2022-11-06T00:02:57.773Z,4.65
2022-11-06T00:05:24.477Z,3.63
2022-11-06T00:07:51.131Z,6.07
2022-11-06T00:10:17.746Z,4.75
2022-11-06T00:12:44.397Z,4.28
2022-11-06T00:15:11.236Z,3.65
2022-11-06T00:17:38.082Z,2.90
2022-11-06T00:20:04.748Z,5.07
2022-11-06T00:22:31.595Z,3.65
2022-11-06T00:24:58.423Z,3.88
2022-11-06T00:27:25.037Z,3.40
2022-11-06T00:29:51.651Z,4.33
2022-11-06T00:32:18.255Z,3.42
2022-11-06T00:34:44.878Z,2.97
2022-11-06T00:37:11.718Z,3.17
2022-11-06T00:39:38.354Z,4.43
2022-11-06T00:42:05.216Z,3.73
2022-11-06T00:44:31.838Z,3.55
2022-11-06T00:46:58.648Z,4.55
2022-11-06T00:49:25.273Z,3.88
2022-11-06T00:51:51.882Z,4.05
2022-11-06T00:54:18.488Z,3.70
2022-11-06T00:56:45.097Z,2.60
2022-11-06T00:59:11.731Z,3.17
2022-11-06T01:01:38.495Z,3.00
2022-11-06T01:04:05.211Z,4.43
2022-11-06T01:06:31.841Z,3.13
2022-11-06T01:08:58.677Z,2.60
2022-11-06T01:11:25.494Z,2.90
2022-11-06T01:13:52.111Z,4.43
2022-11-06T01:16:18.947Z,3.20
2022-11-06T01:18:45.577Z,3.57
2022-11-06T01:21:12.415Z,3.33
2022-11-06T01:23:39.243Z,3.35
2022-11-06T01:26:05.864Z,3.90
2022-11-06T01:28:32.503Z,3.50
2022-11-06T01:30:59.135Z,3.97
2022-11-06T01:33:25.954Z,2.95
2022-11-06T01:35:52.567Z,2.33
2022-11-06T01:38:19.192Z,2.63
2022-11-06T01:40:45.820Z,3.67
2022-11-06T01:43:12.444Z,2.70
2022-11-06T01:45:39.044Z,2.88
2022-11-06T01:48:05.669Z,3.33
2022-11-06T01:50:32.480Z,4.50
2022-11-06T01:52:59.297Z,8.40
2022-11-06T01:55:25.937Z,8.20
2022-11-06T01:57:52.574Z,3.55
2022-11-06T02:00:19.413Z,2.67
2022-11-06T02:02:46.331Z,6.93
2022-11-06T02:05:13.051Z,5.10
2022-11-06T02:07:39.692Z,3.00
2022-11-06T02:10:06.331Z,5.10
2022-11-06T02:12:33.159Z,4.85
2022-11-06T02:14:59.989Z,3.15
2022-11-06T02:17:26.615Z,3.70
2022-11-06T02:19:55.870Z,7.53
2022-11-06T02:22:22.486Z,3.90
2022-11-06T02:24:49.312Z,2.83
2022-11-06T02:27:15.934Z,2.92
2022-11-06T02:29:42.756Z,3.45
2022-11-06T02:32:09.366Z,4.23
2022-11-06T02:34:35.982Z,3.85
2022-11-06T02:37:02.617Z,2.50
2022-11-06T02:39:29.342Z,3.15
2022-11-06T02:41:56.238Z,3.88
2022-11-06T02:44:22.858Z,5.13
2022-11-06T02:46:49.626Z,2.78
2022-11-06T02:49:16.261Z,4.15
2022-11-06T02:51:42.878Z,4.57
2022-11-06T02:54:09.511Z,2.40
2022-11-06T02:56:36.124Z,4.03
2022-11-06T02:59:02.731Z,4.57
2022-11-06T03:01:29.705Z,3.40
2022-11-06T03:03:56.427Z,2.72
2022-11-06T03:06:23.248Z,3.03
2022-11-06T03:08:49.869Z,2.37
2022-11-06T03:11:16.717Z,3.60
2022-11-06T03:13:43.339Z,2.72
2022-11-06T03:16:10.183Z,2.85
2022-11-06T03:18:36.813Z,4.28
2022-11-06T03:21:03.442Z,3.20
2022-11-06T03:23:30.072Z,2.20
2022-11-06T03:25:56.707Z,2.80
2022-11-06T03:28:23.335Z,4.47
2022-11-06T03:30:49.952Z,3.70
2022-11-06T03:33:17.386Z,2.43
2022-11-06T03:35:44.024Z,2.20
2022-11-06T03:38:11.149Z,2.60
2022-11-06T03:40:38.289Z,3.05
2022-11-06T03:43:05.103Z,3.05
2022-11-06T03:45:31.703Z,4.83
2022-11-06T03:47:58.514Z,3.47
2022-11-06T03:50:25.103Z,2.83
2022-11-06T03:52:53.169Z,2.60
2022-11-06T03:55:19.923Z,3.40
2022-11-06T03:57:46.557Z,1.87
2022-11-06T04:00:13.194Z,3.17
2022-11-06T04:02:39.941Z,2.10
2022-11-06T04:05:06.630Z,2.78
2022-11-06T04:07:33.263Z,2.90
2022-11-06T04:09:59.898Z,2.40
2022-11-06T04:12:26.516Z,2.92
2022-11-06T04:14:53.511Z,2.53
2022-11-06T04:17:20.136Z,2.33
2022-11-06T04:19:46.741Z,2.00
2022-11-06T04:22:13.556Z,2.47
2022-11-06T04:24:40.164Z,2.60
2022-11-06T04:27:06.770Z,2.17
2022-11-06T04:29:33.392Z,2.17
2022-11-06T04:32:00.023Z,2.58
2022-11-06T04:34:26.845Z,3.63
2022-11-06T04:36:53.483Z,2.58
2022-11-06T04:39:20.348Z,1.95
2022-11-06T04:41:46.964Z,2.92
2022-11-06T04:44:13.557Z,3.60
2022-11-06T04:46:40.180Z,2.20
2022-11-06T04:49:06.988Z,2.88
2022-11-06T04:51:33.602Z,2.55
2022-11-06T04:54:00.428Z,2.78
2022-11-06T04:56:29.253Z,2.05
2022-11-06T04:58:56.350Z,2.60
2022-11-06T05:01:23.060Z,2.45
2022-11-06T05:03:49.761Z,2.60
2022-11-06T05:06:16.359Z,2.30
2022-11-06T05:08:42.954Z,2.72
2022-11-06T05:11:09.578Z,2.97
2022-11-06T05:13:36.209Z,1.98
2022-11-06T05:16:02.828Z,2.25
2022-11-06T05:18:29.489Z,2.15
2022-11-06T05:20:56.138Z,3.10
2022-11-06T05:23:22.739Z,2.90
2022-11-06T05:25:49.346Z,5.13
2022-11-06T05:28:16.230Z,2.67
2022-11-06T05:30:43.011Z,2.28
2022-11-06T05:33:09.631Z,2.58
2022-11-06T05:35:36.231Z,2.70
2022-11-06T05:38:02.872Z,4.20
2022-11-06T05:40:29.502Z,2.80
2022-11-06T05:42:57.910Z,3.08
2022-11-06T05:45:24.532Z,5.05
2022-11-06T05:47:51.161Z,2.60
2022-11-06T05:50:17.981Z,9.90
2022-11-06T05:52:44.594Z,2.70
2022-11-06T05:55:14.723Z,4.85
2022-11-06T05:57:42.236Z,5.22
2022-11-06T06:00:09.178Z,4.40
2022-11-06T06:02:35.894Z,3.42
2022-11-06T06:05:02.602Z,3.92
2022-11-06T06:07:29.204Z,3.00
2022-11-06T06:09:55.801Z,4.88
2022-11-06T06:12:22.856Z,3.90
2022-11-06T06:14:50.637Z,4.95
2022-11-06T06:17:17.360Z,4.25
2022-11-06T06:19:43.955Z,3.83
2022-11-06T06:22:10.561Z,3.92
2022-11-06T06:24:37.443Z,2.97
2022-11-06T06:27:04.092Z,3.72
2022-11-06T06:29:30.698Z,4.18
2022-11-06T06:31:57.303Z,3.83
2022-11-06T06:34:24.137Z,2.80
2022-11-06T06:36:50.968Z,4.10
2022-11-06T06:39:17.609Z,4.07
2022-11-06T06:41:44.229Z,3.53
2022-11-06T06:44:11.069Z,2.70
2022-11-06T06:46:37.677Z,3.08
2022-11-06T06:49:04.497Z,3.00
2022-11-06T06:51:31.116Z,4.18
2022-11-06T06:53:57.938Z,3.33
2022-11-06T06:56:24.550Z,3.60
2022-11-06T06:58:51.396Z,3.13
2022-11-06T07:01:18.047Z,4.80
2022-11-06T07:03:44.880Z,3.25
2022-11-06T07:06:11.514Z,3.05
2022-11-06T07:08:38.119Z,3.83
2022-11-06T07:11:04.974Z,3.03
2022-11-06T07:13:35.894Z,3.90
2022-11-06T07:16:02.864Z,3.95
2022-11-06T07:18:29.456Z,4.40
2022-11-06T07:20:56.296Z,3.53
2022-11-06T07:23:22.900Z,3.95
2022-11-06T07:25:49.510Z,3.07
2022-11-06T07:28:16.365Z,3.60
2022-11-06T07:30:43.137Z,3.03
2022-11-06T07:33:09.750Z,3.35
2022-11-06T07:35:36.581Z,3.60
2022-11-06T07:38:03.203Z,5.13
2022-11-06T07:40:29.824Z,4.25
2022-11-06T07:42:56.646Z,4.30
2022-11-06T07:45:24.169Z,3.08
2022-11-06T07:47:55.132Z,4.78
2022-11-06T07:50:24.669Z,4.53
2022-11-06T07:52:51.475Z,3.47
2022-11-06T07:55:18.091Z,3.72
2022-11-06T07:57:44.711Z,4.30
2022-11-06T08:00:11.307Z,5.93
2022-11-06T08:02:37.933Z,8.23
2022-11-06T08:05:05.245Z,13.35
2022-11-06T08:07:31.855Z,7.63
2022-11-06T08:09:59.256Z,12.30
2022-11-06T08:12:25.848Z,9.55
2022-11-06T08:14:52.652Z,15.83
2022-11-06T08:17:19.262Z,9.20
2022-11-06T08:19:46.117Z,9.10
2022-11-06T08:22:12.712Z,12.50
2022-11-06T08:24:39.344Z,17.27
2022-11-06T08:27:05.968Z,5.50
2022-11-06T08:29:35.886Z,8.63
2022-11-06T08:32:06.640Z,13.63
2022-11-06T08:34:33.492Z,8.45
2022-11-06T08:37:00.117Z,7.45
2022-11-06T08:39:26.727Z,7.27
2022-11-06T08:41:53.328Z,11.70
2022-11-06T08:44:20.376Z,10.57
2022-11-06T08:46:51.731Z,8.85
2022-11-06T08:49:18.809Z,8.98
2022-11-06T08:51:45.632Z,6.20
2022-11-06T08:54:12.322Z,10.52
2022-11-06T08:56:39.216Z,9.77
2022-11-06T08:59:05.814Z,10.77
2022-11-06T09:01:32.577Z,11.80
2022-11-06T09:03:59.269Z,6.70
2022-11-06T09:06:26.114Z,8.02
2022-11-06T09:08:52.963Z,12.73
2022-11-06T09:11:19.596Z,11.27
2022-11-06T09:13:46.420Z,17.75
2022-11-06T09:16:16.116Z,10.13
2022-11-06T09:18:42.984Z,8.75
2022-11-06T09:21:09.596Z,23.42
2022-11-06T09:23:36.230Z,15.70
2022-11-06T09:26:03.089Z,18.30
2022-11-06T09:28:29.715Z,53.80
2022-11-06T09:30:56.316Z,31.38
2022-11-06T09:33:22.921Z,29.23
2022-11-06T09:35:49.549Z,28.60
2022-11-06T09:38:16.148Z,18.88
2022-11-06T09:40:42.776Z,21.07
2022-11-06T09:43:09.402Z,25.58
2022-11-06T09:45:36.019Z,14.85
2022-11-06T09:48:02.654Z,23.13
2022-11-06T09:50:29.500Z,23.60
2022-11-06T09:52:57.500Z,21.03
2022-11-06T09:55:27.215Z,22.23
2022-11-06T09:57:54.155Z,21.42
2022-11-06T10:00:21.003Z,21.77
2022-11-06T10:02:47.728Z,21.13
2022-11-06T10:05:14.617Z,23.67
2022-11-06T10:07:41.240Z,24.20
2022-11-06T10:10:07.870Z,18.98
